createdAt,value
2023-02-21T00:04:55.770Z,9.02
2023-02-21T00:10:16.261Z,7.68
2023-02-21T00:15:36.261Z,7.40
2023-02-21T00:20:56.199Z,6.57
2023-02-21T00:26:16.376Z,7.55
2023-02-21T00:31:39.297Z,7.32
2023-02-21T00:36:59.710Z,6.22
2023-02-21T00:42:20.174Z,5.53
2023-02-21T00:47:40.269Z,5.57
2023-02-21T00:53:00.397Z,5.88
2023-02-21T00:58:20.469Z,5.70
2023-02-21T01:03:40.654Z,5.00
2023-02-21T01:09:02.661Z,5.00
2023-02-21T01:14:23.194Z,5.30
2023-02-21T01:19:45.621Z,4.78
2023-02-21T01:25:08.718Z,4.30
2023-02-21T01:30:29.165Z,4.90
2023-02-21T01:35:49.598Z,4.30
2023-02-21T01:41:10.037Z,5.03
2023-02-21T01:46:33.215Z,4.20
2023-02-21T01:51:57.213Z,5.03
2023-02-21T01:57:19.985Z,5.25
2023-02-21T02:02:52.358Z,4.97
2023-02-21T02:08:13.329Z,5.18
2023-02-21T02:14:08.494Z,4.85
2023-02-21T02:19:25.221Z,5.22
2023-02-21T02:25:21.670Z,4.65
2023-02-21T02:30:44.804Z,4.57
2023-02-21T02:35:56.386Z,5.65
2023-02-21T02:41:11.589Z,4.88
2023-02-21T02:46:34.841Z,4.78
2023-02-21T02:51:37.108Z,4.85
2023-02-21T02:56:39.057Z,5.57
2023-02-21T03:01:50.080Z,5.78
2023-02-21T03:07:18.690Z,5.30
2023-02-21T03:12:33.087Z,4.63
2023-02-21T03:17:42.662Z,4.68
2023-02-21T03:22:46.508Z,4.93
2023-02-21T03:27:49.916Z,5.05
2023-02-21T03:32:53.767Z,5.00
2023-02-21T03:37:56.169Z,4.80
2023-02-21T03:42:59.957Z,5.25
2023-02-21T03:48:02.654Z,5.35
2023-02-21T03:53:04.537Z,5.10
2023-02-21T03:58:06.229Z,4.88
2023-02-21T04:03:07.852Z,4.45
2023-02-21T04:08:09.482Z,4.80
2023-02-21T04:13:11.220Z,4.72
2023-02-21T04:18:12.879Z,5.20
2023-02-21T04:23:21.784Z,4.40
2023-02-21T04:28:23.457Z,4.72
2023-02-21T04:33:25.149Z,4.32
2023-02-21T04:38:26.785Z,4.32
2023-02-21T04:43:28.470Z,5.20
2023-02-21T04:48:30.127Z,4.70
2023-02-21T04:53:31.778Z,5.07
2023-02-21T04:58:44.186Z,4.60
2023-02-21T05:03:47.531Z,4.30
2023-02-21T05:08:49.711Z,4.00
2023-02-21T05:13:52.057Z,4.10
2023-02-21T05:18:53.678Z,4.32
2023-02-21T05:23:58.342Z,3.83
2023-02-21T05:29:00.035Z,4.40
2023-02-21T05:34:01.762Z,5.60
2023-02-21T05:39:04.234Z,5.93
2023-02-21T05:44:06.300Z,6.20
2023-02-21T05:49:08.113Z,5.32
2023-02-21T05:54:13.884Z,4.85
2023-02-21T05:59:18.976Z,5.00
2023-02-21T06:04:20.668Z,5.28
2023-02-21T06:09:22.348Z,4.50
2023-02-21T06:14:24.433Z,5.00
2023-02-21T06:19:26.233Z,4.60
2023-02-21T06:24:27.933Z,5.55
2023-02-21T06:29:29.559Z,5.82
2023-02-21T06:34:31.253Z,5.47
2023-02-21T06:39:33.040Z,5.78
2023-02-21T06:44:34.657Z,4.72
2023-02-21T06:49:36.378Z,6.15
2023-02-21T06:54:39.471Z,5.47
2023-02-21T06:59:41.391Z,6.22
2023-02-21T07:04:43.132Z,6.32
2023-02-21T07:09:44.854Z,7.20
2023-02-21T07:14:46.595Z,5.55
2023-02-21T07:19:48.252Z,5.50
2023-02-21T07:24:49.862Z,4.82
2023-02-21T07:29:51.567Z,4.78
2023-02-21T07:34:53.209Z,5.25
2023-02-21T07:39:55.027Z,4.88
2023-02-21T07:44:57.418Z,4.30
2023-02-21T07:49:59.391Z,4.28
2023-02-21T07:55:01.471Z,4.25
2023-02-21T08:00:04.730Z,4.05
2023-02-21T08:05:08.502Z,3.97
2023-02-21T08:10:10.501Z,4.25
2023-02-21T08:15:12.171Z,3.83
2023-02-21T08:20:13.891Z,3.80
2023-02-21T08:25:16.328Z,3.78
2023-02-21T08:30:18.237Z,3.78
2023-02-21T08:35:20.670Z,3.78
2023-02-21T08:40:24.512Z,3.88
2023-02-21T08:45:28.216Z,4.57
2023-02-21T08:50:30.515Z,4.47
2023-02-21T08:55:32.197Z,4.20
2023-02-21T09:00:33.936Z,4.97
2023-02-21T09:05:35.665Z,4.57
2023-02-21T09:10:37.412Z,4.90
2023-02-21T09:15:39.118Z,4.20
2023-02-21T09:20:42.449Z,4.15
2023-02-21T09:25:44.193Z,3.95
2023-02-21T09:30:46.324Z,4.15
2023-02-21T09:35:48.177Z,4.45
2023-02-21T09:40:56.881Z,4.30
2023-02-21T09:46:03.115Z,3.60
2023-02-21T09:51:08.757Z,3.30
2023-02-21T09:56:28.406Z,3.63
2023-02-21T10:01:54.817Z,3.08
2023-02-21T10:07:27.069Z,3.28
2023-02-21T10:12:34.097Z,3.38
2023-02-21T10:17:42.673Z,2.97
2023-02-21T10:22:47.686Z,3.17
2023-02-21T10:27:52.298Z,3.20
2023-02-21T10:32:54.068Z,3.45
2023-02-21T10:37:59.693Z,3.53
2023-02-21T10:43:04.603Z,2.80
2023-02-21T10:48:10.680Z,2.72
2023-02-21T10:53:39.351Z,2.88
2023-02-21T10:58:57.439Z,2.30
2023-02-21T11:04:22.998Z,2.58
2023-02-21T11:09:27.520Z,2.17
2023-02-21T11:14:31.471Z,2.00
2023-02-21T11:19:54.165Z,1.77
2023-02-21T11:25:05.515Z,2.40
2023-02-21T11:30:22.004Z,2.17
2023-02-21T11:45:38.045Z,1.95
2023-02-21T11:50:49.283Z,2.10
2023-02-21T11:56:09.436Z,2.38
2023-02-21T12:01:18.643Z,1.92
2023-02-21T12:06:23.521Z,1.73
2023-02-21T12:11:43.323Z,1.73
2023-02-21T12:16:53.801Z,1.33
2023-02-21T12:22:01.498Z,1.40
2023-02-21T12:27:13.213Z,1.77
2023-02-21T12:32:32.871Z,1.50
2023-02-21T12:37:40.491Z,1.35
2023-02-21T12:42:53.606Z,1.30
2023-02-21T12:48:16.714Z,1.55
2023-02-21T12:53:24.591Z,1.90
2023-02-21T12:58:30.100Z,1.80
2023-02-21T13:03:58.066Z,1.42
2023-02-21T13:09:05.678Z,1.60
2023-02-21T13:14:16.909Z,3.22
2023-02-21T13:19:18.727Z,1.15
2023-02-21T13:25:02.034Z,1.42
2023-02-21T13:30:29.440Z,1.50
2023-02-21T13:35:39.900Z,1.30
2023-02-21T13:40:54.569Z,1.67
2023-02-21T13:46:31.106Z,1.98
2023-02-21T13:51:56.238Z,1.70
2023-02-21T13:56:57.962Z,1.50
2023-02-21T14:02:23.539Z,1.70
2023-02-21T14:07:47.359Z,2.30
2023-02-21T14:12:57.716Z,2.20
2023-02-21T14:18:01.079Z,2.10
2023-02-21T14:23:05.458Z,2.08
2023-02-21T14:28:46.153Z,1.95
2023-02-21T14:33:49.280Z,1.65
2023-02-21T14:38:53.262Z,2.05
2023-02-21T14:44:43.577Z,1.60
2023-02-21T14:50:10.437Z,1.70
2023-02-21T14:55:45.372Z,1.50
2023-02-21T15:00:47.068Z,1.63
2023-02-21T15:06:07.506Z,1.38
2023-02-21T15:11:21.986Z,1.63
2023-02-21T15:16:24.414Z,1.50
2023-02-21T15:21:27.520Z,1.90
2023-02-21T15:26:31.490Z,4.68
2023-02-21T15:31:40.145Z,2.72
2023-02-21T15:36:41.946Z,2.38
2023-02-21T15:41:48.466Z,2.80
2023-02-21T15:51:54.504Z,2.97
2023-02-21T15:57:12.061Z,2.70
2023-02-21T16:02:17.494Z,3.20
2023-02-21T16:07:37.214Z,2.67
2023-02-21T16:12:43.827Z,2.60
2023-02-21T16:23:07.368Z,2.60
2023-02-21T16:28:13.279Z,8.23
2023-02-21T16:33:15.264Z,4.30
2023-02-21T16:38:20.660Z,4.00
2023-02-21T16:43:28.050Z,4.50
2023-02-21T16:48:33.885Z,5.28
2023-02-21T16:53:36.213Z,5.70
2023-02-21T16:58:51.941Z,3.22
2023-02-21T17:03:54.074Z,4.83
2023-02-21T17:08:57.107Z,4.90
2023-02-21T17:13:59.133Z,4.13
2023-02-21T17:19:01.043Z,3.92
2023-02-21T17:24:03.093Z,4.15
2023-02-21T17:29:07.955Z,3.42
2023-02-21T17:34:13.886Z,3.08
2023-02-21T17:39:21.461Z,3.70
2023-02-21T17:44:27.533Z,4.03
2023-02-21T17:49:31.034Z,4.47
2023-02-21T17:54:33.338Z,4.07
2023-02-21T17:59:36.871Z,3.15
2023-02-21T18:04:39.188Z,4.07
2023-02-21T18:09:41.421Z,3.03
2023-02-21T18:14:43.605Z,3.25
2023-02-21T18:19:46.031Z,2.92
2023-02-21T18:24:48.879Z,3.20
2023-02-21T18:29:55.012Z,3.30
2023-02-21T18:34:57.980Z,4.63
2023-02-21T18:40:00.586Z,5.07
2023-02-21T18:45:03.097Z,5.93
2023-02-21T18:50:09.638Z,4.82
2023-02-21T18:55:13.315Z,4.40
2023-02-21T19:00:19.926Z,3.88
2023-02-21T19:10:30.811Z,3.53
2023-02-21T19:15:33.719Z,4.15
2023-02-21T19:20:37.395Z,4.18
2023-02-21T19:25:40.198Z,6.07
2023-02-21T19:30:43.298Z,8.73
2023-02-21T19:35:46.657Z,8.18
2023-02-21T19:40:49.383Z,7.13
2023-02-21T19:45:53.342Z,7.13
2023-02-21T19:50:58.082Z,7.22
2023-02-21T19:56:00.988Z,7.57
2023-02-21T20:01:03.836Z,7.13
2023-02-21T20:06:07.786Z,8.05
2023-02-21T20:11:12.761Z,7.53
2023-02-21T20:16:17.276Z,5.95
2023-02-21T20:21:29.643Z,5.40
2023-02-21T20:26:32.285Z,6.00
2023-02-21T20:31:38.044Z,5.30
2023-02-21T20:36:43.871Z,4.75
2023-02-21T20:41:48.271Z,5.03
2023-02-21T20:46:51.244Z,4.72
2023-02-21T20:51:55.216Z,5.03
2023-02-21T20:56:58.128Z,5.53
2023-02-21T21:02:02.501Z,5.50
2023-02-21T21:07:13.331Z,4.43
2023-02-21T21:12:18.729Z,4.80
2023-02-21T21:17:23.109Z,4.55
2023-02-21T21:22:29.295Z,5.72
2023-02-21T21:27:33.339Z,3.97
2023-02-21T21:32:37.135Z,4.25
2023-02-21T21:37:42.375Z,5.60
2023-02-21T21:42:50.893Z,8.00
2023-02-21T21:47:59.674Z,7.07
2023-02-21T21:53:01.478Z,6.63
2023-02-21T21:58:10.805Z,5.63
2023-02-21T22:03:14.576Z,6.93
2023-02-21T22:08:22.582Z,6.55
2023-02-21T22:13:32.670Z,6.35
2023-02-21T22:18:34.505Z,5.88
2023-02-21T22:23:38.876Z,5.22
2023-02-21T22:28:40.486Z,5.57
2023-02-21T22:33:42.441Z,4.28
2023-02-21T22:38:47.707Z,5.53
2023-02-21T22:43:50.796Z,5.13
2023-02-21T22:48:53.524Z,5.03
2023-02-21T22:53:55.280Z,4.95
2023-02-21T22:58:59.849Z,5.65
2023-02-21T23:04:10.957Z,5.57
2023-02-21T23:09:13.444Z,5.15
2023-02-21T23:14:22.046Z,5.20
2023-02-21T23:19:25.527Z,4.88
2023-02-21T23:24:28.263Z,4.70
2023-02-21T23:29:31.061Z,4.75
2023-02-21T23:34:40.733Z,4.93
2023-02-21T23:39:42.696Z,5.00
2023-02-21T23:44:45.261Z,4.63
2023-02-21T23:49:47.087Z,4.78
2023-02-21T23:54:48.801Z,4.25
2023-02-21T23:59:51.973Z,4.68
